sensor_id;sensor_type;location;lat;lon;timestamp;P1;durP1;ratioP1;P2;durP2;ratioP2
8663;SDS011;4369;47.842;13.096;2023-06-24T00:02:10;9.03;;;7.60;;
8663;SDS011;4369;47.842;13.096;2023-06-24T00:04:37;8.60;;;7.30;;
8663;SDS011;4369;47.842;13.096;2023-06-24T00:07:04;9.73;;;7.40;;
8663;SDS011;4369;47.842;13.096;2023-06-24T00:09:31;11.00;;;7.47;;
8663;SDS011;4369;47.842;13.096;2023-06-24T00:12:00;10.17;;;7.37;;
8663;SDS011;4369;47.842;13.096;2023-06-24T00:14:28;8.37;;;7.33;;
8663;SDS011;4369;47.842;13.096;2023-06-24T00:16:55;9.17;;;7.63;;
8663;SDS011;4369;47.842;13.096;2023-06-24T00:19:23;8.93;;;7.77;;
8663;SDS011;4369;47.842;13.096;2023-06-24T00:21:51;10.17;;;8.30;;
8663;SDS011;4369;47.842;13.096;2023-06-24T00:24:18;9.37;;;7.67;;
8663;SDS011;4369;47.842;13.096;2023-06-24T00:26:46;10.73;;;9.00;;
8663;SDS011;4369;47.842;13.096;2023-06-24T00:29:14;9.67;;;7.97;;
8663;SDS011;4369;47.842;13.096;2023-06-24T00:31:41;10.43;;;8.97;;
8663;SDS011;4369;47.842;13.096;2023-06-24T00:34:08;9.33;;;8.33;;
8663;SDS011;4369;47.842;13.096;2023-06-24T00:36:35;9.80;;;8.40;;
8663;SDS011;4369;47.842;13.096;2023-06-24T00:39:03;9.73;;;8.33;;
8663;SDS011;4369;47.842;13.096;2023-06-24T00:41:30;11.17;;;9.27;;
8663;SDS011;4369;47.842;13.096;2023-06-24T00:43:58;10.10;;;8.10;;
8663;SDS011;4369;47.842;13.096;2023-06-24T00:46:27;10.97;;;9.37;;
8663;SDS011;4369;47.842;13.096;2023-06-24T00:48:57;9.83;;;8.27;;
8663;SDS011;4369;47.842;13.096;2023-06-24T00:51:24;10.57;;;8.80;;
8663;SDS011;4369;47.842;13.096;2023-06-24T00:53:55;9.03;;;7.77;;
8663;SDS011;4369;47.842;13.096;2023-06-24T00:56:23;8.37;;;7.50;;
8663;SDS011;4369;47.842;13.096;2023-06-24T00:58:56;10.90;;;8.30;;
8663;SDS011;4369;47.842;13.096;2023-06-24T01:01:23;8.83;;;7.63;;
8663;SDS011;4369;47.842;13.096;2023-06-24T01:03:52;8.43;;;7.53;;
8663;SDS011;4369;47.842;13.096;2023-06-24T01:06:19;8.63;;;7.43;;
8663;SDS011;4369;47.842;13.096;2023-06-24T01:08:47;7.90;;;7.03;;
8663;SDS011;4369;47.842;13.096;2023-06-24T01:11:16;7.30;;;6.60;;
8663;SDS011;4369;47.842;13.096;2023-06-24T01:13:43;7.87;;;6.83;;
8663;SDS011;4369;47.842;13.096;2023-06-24T01:16:11;7.33;;;6.63;;
8663;SDS011;4369;47.842;13.096;2023-06-24T01:18:45;7.57;;;6.77;;
8663;SDS011;4369;47.842;13.096;2023-06-24T01:21:17;7.47;;;6.67;;
8663;SDS011;4369;47.842;13.096;2023-06-24T01:24:15;6.97;;;6.27;;
8663;SDS011;4369;47.842;13.096;2023-06-24T01:30:15;6.40;;;5.80;;
8663;SDS011;4369;47.842;13.096;2023-06-24T01:33:04;7.70;;;6.53;;
8663;SDS011;4369;47.842;13.096;2023-06-24T01:35:34;6.23;;;5.63;;
8663;SDS011;4369;47.842;13.096;2023-06-24T01:38:03;9.57;;;5.90;;
8663;SDS011;4369;47.842;13.096;2023-06-24T01:40:37;7.03;;;6.33;;
8663;SDS011;4369;47.842;13.096;2023-06-24T01:43:09;6.60;;;5.83;;
8663;SDS011;4369;47.842;13.096;2023-06-24T01:45:40;6.73;;;5.60;;
8663;SDS011;4369;47.842;13.096;2023-06-24T01:48:13;7.60;;;6.67;;
8663;SDS011;4369;47.842;13.096;2023-06-24T01:50:45;7.37;;;6.00;;
8663;SDS011;4369;47.842;13.096;2023-06-24T01:53:17;6.10;;;5.50;;
8663;SDS011;4369;47.842;13.096;2023-06-24T01:55:46;6.67;;;6.00;;
8663;SDS011;4369;47.842;13.096;2023-06-24T01:58:14;6.80;;;6.10;;
8663;SDS011;4369;47.842;13.096;2023-06-24T02:00:43;6.03;;;5.43;;
8663;SDS011;4369;47.842;13.096;2023-06-24T02:03:10;6.80;;;5.80;;
8663;SDS011;4369;47.842;13.096;2023-06-24T02:05:40;8.40;;;6.63;;
8663;SDS011;4369;47.842;13.096;2023-06-24T02:08:09;7.17;;;6.47;;
8663;SDS011;4369;47.842;13.096;2023-06-24T02:10:40;6.57;;;5.97;;
8663;SDS011;4369;47.842;13.096;2023-06-24T02:13:09;7.40;;;6.60;;
8663;SDS011;4369;47.842;13.096;2023-06-24T02:15:38;6.80;;;6.20;;
8663;SDS011;4369;47.842;13.096;2023-06-24T02:18:07;7.20;;;6.50;;
8663;SDS011;4369;47.842;13.096;2023-06-24T02:20:37;8.30;;;6.37;;
8663;SDS011;4369;47.842;13.096;2023-06-24T02:23:06;6.63;;;6.00;;
8663;SDS011;4369;47.842;13.096;2023-06-24T02:25:34;7.03;;;6.33;;
8663;SDS011;4369;47.842;13.096;2023-06-24T02:28:04;6.70;;;6.10;;
8663;SDS011;4369;47.842;13.096;2023-06-24T02:30:32;7.27;;;6.33;;
8663;SDS011;4369;47.842;13.096;2023-06-24T02:33:01;6.70;;;6.00;;
8663;SDS011;4369;47.842;13.096;2023-06-24T02:35:28;7.93;;;6.37;;
8663;SDS011;4369;47.842;13.096;2023-06-24T02:37:56;7.07;;;6.30;;
8663;SDS011;4369;47.842;13.096;2023-06-24T02:40:23;8.47;;;7.00;;
8663;SDS011;4369;47.842;13.096;2023-06-24T02:42:51;8.10;;;7.30;;
8663;SDS011;4369;47.842;13.096;2023-06-24T02:45:18;8.30;;;7.50;;
8663;SDS011;4369;47.842;13.096;2023-06-24T02:47:45;8.93;;;8.03;;
8663;SDS011;4369;47.842;13.096;2023-06-24T02:50:14;8.70;;;7.80;;
8663;SDS011;4369;47.842;13.096;2023-06-24T02:52:41;9.70;;;7.87;;
8663;SDS011;4369;47.842;13.096;2023-06-24T02:55:11;9.03;;;7.70;;
8663;SDS011;4369;47.842;13.096;2023-06-24T02:57:38;7.60;;;6.67;;
8663;SDS011;4369;47.842;13.096;2023-06-24T03:02:52;8.73;;;7.10;;
8663;SDS011;4369;47.842;13.096;2023-06-24T03:06:08;7.50;;;6.70;;
8663;SDS011;4369;47.842;13.096;2023-06-24T03:08:42;8.07;;;6.50;;
8663;SDS011;4369;47.842;13.096;2023-06-24T03:11:13;8.20;;;7.10;;
8663;SDS011;4369;47.842;13.096;2023-06-24T03:13:40;7.20;;;6.47;;
8663;SDS011;4369;47.842;13.096;2023-06-24T03:16:07;7.40;;;6.57;;
8663;SDS011;4369;47.842;13.096;2023-06-24T03:18:37;7.53;;;6.57;;
8663;SDS011;4369;47.842;13.096;2023-06-24T03:21:04;8.33;;;6.63;;
8663;SDS011;4369;47.842;13.096;2023-06-24T03:23:32;7.07;;;6.43;;
8663;SDS011;4369;47.842;13.096;2023-06-24T03:25:59;7.90;;;7.07;;
8663;SDS011;4369;47.842;13.096;2023-06-24T03:28:28;6.83;;;5.87;;
8663;SDS011;4369;47.842;13.096;2023-06-24T03:30:56;6.80;;;6.07;;
8663;SDS011;4369;47.842;13.096;2023-06-24T03:33:23;7.17;;;6.07;;
8663;SDS011;4369;47.842;13.096;2023-06-24T03:35:52;6.77;;;5.30;;
8663;SDS011;4369;47.842;13.096;2023-06-24T03:38:19;6.93;;;5.77;;
8663;SDS011;4369;47.842;13.096;2023-06-24T03:40:46;6.57;;;5.87;;
8663;SDS011;4369;47.842;13.096;2023-06-24T03:43:13;6.90;;;6.30;;
8663;SDS011;4369;47.842;13.096;2023-06-24T03:45:41;6.03;;;5.43;;
8663;SDS011;4369;47.842;13.096;2023-06-24T03:48:11;5.77;;;5.23;;
8663;SDS011;4369;47.842;13.096;2023-06-24T03:50:41;6.00;;;5.37;;
8663;SDS011;4369;47.842;13.096;2023-06-24T03:53:09;6.10;;;5.50;;
8663;SDS011;4369;47.842;13.096;2023-06-24T03:55:36;5.93;;;5.40;;
8663;SDS011;4369;47.842;13.096;2023-06-24T03:58:03;7.03;;;6.33;;
8663;SDS011;4369;47.842;13.096;2023-06-24T04:00:30;6.97;;;6.10;;
8663;SDS011;4369;47.842;13.096;2023-06-24T04:02:58;5.63;;;4.87;;
8663;SDS011;4369;47.842;13.096;2023-06-24T04:05:26;8.67;;;5.77;;
8663;SDS011;4369;47.842;13.096;2023-06-24T04:07:54;6.40;;;5.80;;
8663;SDS011;4369;47.842;13.096;2023-06-24T04:10:20;6.83;;;6.13;;
8663;SDS011;4369;47.842;13.096;2023-06-24T04:12:47;6.33;;;5.73;;
8663;SDS011;4369;47.842;13.096;2023-06-24T04:15:14;6.80;;;6.10;;
8663;SDS011;4369;47.842;13.096;2023-06-24T04:17:41;6.93;;;6.33;;
8663;SDS011;4369;47.842;13.096;2023-06-24T04:20:10;7.30;;;6.37;;
8663;SDS011;4369;47.842;13.096;2023-06-24T04:22:37;8.30;;;7.40;;
8663;SDS011;4369;47.842;13.096;2023-06-24T04:25:06;6.37;;;5.47;;
8663;SDS011;4369;47.842;13.096;2023-06-24T04:27:33;5.43;;;4.93;;
8663;SDS011;4369;47.842;13.096;2023-06-24T04:30:01;5.10;;;4.60;;
8663;SDS011;4369;47.842;13.096;2023-06-24T04:32:29;4.87;;;4.47;;
8663;SDS011;4369;47.842;13.096;2023-06-24T04:34:57;5.03;;;4.57;;
8663;SDS011;4369;47.842;13.096;2023-06-24T04:37:25;4.87;;;4.30;;
8663;SDS011;4369;47.842;13.096;2023-06-24T04:39:52;4.97;;;4.47;;
8663;SDS011;4369;47.842;13.096;2023-06-24T04:42:19;5.47;;;4.77;;
8663;SDS011;4369;47.842;13.096;2023-06-24T04:44:47;6.20;;;4.70;;
8663;SDS011;4369;47.842;13.096;2023-06-24T04:47:16;5.13;;;4.63;;
8663;SDS011;4369;47.842;13.096;2023-06-24T04:49:43;7.77;;;5.20;;
8663;SDS011;4369;47.842;13.096;2023-06-24T04:52:10;5.10;;;4.60;;
8663;SDS011;4369;47.842;13.096;2023-06-24T04:54:38;4.90;;;4.40;;
8663;SDS011;4369;47.842;13.096;2023-06-24T04:57:09;4.97;;;4.47;;
8663;SDS011;4369;47.842;13.096;2023-06-24T04:59:48;4.53;;;4.10;;
8663;SDS011;4369;47.842;13.096;2023-06-24T05:02:15;5.87;;;4.27;;
8663;SDS011;4369;47.842;13.096;2023-06-24T05:04:42;4.93;;;4.53;;
8663;SDS011;4369;47.842;13.096;2023-06-24T05:07:09;6.30;;;4.87;;
8663;SDS011;4369;47.842;13.096;2023-06-24T05:09:36;6.73;;;4.80;;
8663;SDS011;4369;47.842;13.096;2023-06-24T05:12:05;5.57;;;5.07;;
8663;SDS011;4369;47.842;13.096;2023-06-24T05:14:33;5.50;;;4.90;;
8663;SDS011;4369;47.842;13.096;2023-06-24T05:17:00;5.90;;;4.83;;
8663;SDS011;4369;47.842;13.096;2023-06-24T05:19:27;5.67;;;4.60;;
8663;SDS011;4369;47.842;13.096;2023-06-24T05:21:54;6.77;;;5.13;;
8663;SDS011;4369;47.842;13.096;2023-06-24T05:24:21;6.93;;;5.10;;
8663;SDS011;4369;47.842;13.096;2023-06-24T05:26:49;6.03;;;5.13;;
8663;SDS011;4369;47.842;13.096;2023-06-24T05:29:17;6.10;;;5.07;;
8663;SDS011;4369;47.842;13.096;2023-06-24T05:31:45;5.87;;;5.27;;
8663;SDS011;4369;47.842;13.096;2023-06-24T05:34:12;5.40;;;4.90;;
8663;SDS011;4369;47.842;13.096;2023-06-24T05:36:39;7.07;;;5.03;;
8663;SDS011;4369;47.842;13.096;2023-06-24T05:39:06;5.93;;;4.40;;
8663;SDS011;4369;47.842;13.096;2023-06-24T05:41:33;5.10;;;4.53;;
8663;SDS011;4369;47.842;13.096;2023-06-24T05:44:02;5.53;;;5.03;;
8663;SDS011;4369;47.842;13.096;2023-06-24T05:46:30;5.37;;;4.83;;
8663;SDS011;4369;47.842;13.096;2023-06-24T05:48:57;7.13;;;4.70;;
8663;SDS011;4369;47.842;13.096;2023-06-24T05:51:24;5.40;;;4.87;;
8663;SDS011;4369;47.842;13.096;2023-06-24T05:56:20;7.57;;;5.10;;
8663;SDS011;4369;47.842;13.096;2023-06-24T05:58:48;5.67;;;5.17;;
8663;SDS011;4369;47.842;13.096;2023-06-24T06:01:24;5.23;;;4.73;;
8663;SDS011;4369;47.842;13.096;2023-06-24T06:04:29;5.60;;;4.57;;
8663;SDS011;4369;47.842;13.096;2023-06-24T06:06:56;6.07;;;4.93;;
8663;SDS011;4369;47.842;13.096;2023-06-24T06:11:49;4.90;;;4.40;;
8663;SDS011;4369;47.842;13.096;2023-06-24T06:14:16;5.03;;;4.57;;
8663;SDS011;4369;47.842;13.096;2023-06-24T06:16:44;4.97;;;4.57;;
8663;SDS011;4369;47.842;13.096;2023-06-24T06:19:11;5.50;;;4.90;;
8663;SDS011;4369;47.842;13.096;2023-06-24T06:21:38;5.23;;;4.33;;
8663;SDS011;4369;47.842;13.096;2023-06-24T06:24:05;5.07;;;4.57;;
8663;SDS011;4369;47.842;13.096;2023-06-24T06:26:32;5.03;;;4.53;;
8663;SDS011;4369;47.842;13.096;2023-06-24T06:28:59;5.13;;;4.53;;
8663;SDS011;4369;47.842;13.096;2023-06-24T06:31:26;4.93;;;4.43;;
8663;SDS011;4369;47.842;13.096;2023-06-24T06:33:54;5.47;;;4.30;;
8663;SDS011;4369;47.842;13.096;2023-06-24T06:36:21;6.40;;;4.30;;
8663;SDS011;4369;47.842;13.096;2023-06-24T06:38:48;5.07;;;4.57;;
8663;SDS011;4369;47.842;13.096;2023-06-24T06:41:15;6.27;;;4.10;;
8663;SDS011;4369;47.842;13.096;2023-06-24T06:43:42;4.90;;;4.07;;
8663;SDS011;4369;47.842;13.096;2023-06-24T06:46:09;6.00;;;3.97;;
8663;SDS011;4369;47.842;13.096;2023-06-24T06:48:36;5.53;;;4.47;;
8663;SDS011;4369;47.842;13.096;2023-06-24T06:51:04;4.90;;;4.20;;
8663;SDS011;4369;47.842;13.096;2023-06-24T06:53:31;4.50;;;3.73;;
8663;SDS011;4369;47.842;13.096;2023-06-24T06:55:58;4.13;;;3.73;;
8663;SDS011;4369;47.842;13.096;2023-06-24T06:58:25;4.27;;;3.70;;
8663;SDS011;4369;47.842;13.096;2023-06-24T07:00:52;3.80;;;3.50;;
8663;SDS011;4369;47.842;13.096;2023-06-24T07:03:19;4.93;;;4.40;;
8663;SDS011;4369;47.842;13.096;2023-06-24T07:05:46;6.73;;;5.83;;
8663;SDS011;4369;47.842;13.096;2023-06-24T07:08:15;6.13;;;4.70;;
8663;SDS011;4369;47.842;13.096;2023-06-24T07:10:41;4.10;;;3.60;;
8663;SDS011;4369;47.842;13.096;2023-06-24T07:13:08;4.20;;;3.80;;
8663;SDS011;4369;47.842;13.096;2023-06-24T07:15:35;5.23;;;3.90;;
8663;SDS011;4369;47.842;13.096;2023-06-24T07:18:02;5.20;;;4.63;;
8663;SDS011;4369;47.842;13.096;2023-06-24T07:20:29;4.27;;;3.87;;
8663;SDS011;4369;47.842;13.096;2023-06-24T07:22:56;5.30;;;4.40;;
8663;SDS011;4369;47.842;13.096;2023-06-24T07:25:24;4.80;;;4.00;;
8663;SDS011;4369;47.842;13.096;2023-06-24T07:27:53;4.83;;;3.97;;
8663;SDS011;4369;47.842;13.096;2023-06-24T07:30:20;5.57;;;4.03;;
8663;SDS011;4369;47.842;13.096;2023-06-24T07:32:47;4.80;;;4.10;;
8663;SDS011;4369;47.842;13.096;2023-06-24T07:35:14;5.30;;;4.23;;
8663;SDS011;4369;47.842;13.096;2023-06-24T07:37:41;5.63;;;4.00;;
8663;SDS011;4369;47.842;13.096;2023-06-24T07:40:08;4.77;;;4.30;;
8663;SDS011;4369;47.842;13.096;2023-06-24T07:42:37;4.40;;;4.00;;
8663;SDS011;4369;47.842;13.096;2023-06-24T07:45:04;4.87;;;3.97;;
8663;SDS011;4369;47.842;13.096;2023-06-24T07:47:31;4.40;;;4.00;;
8663;SDS011;4369;47.842;13.096;2023-06-24T07:49:58;3.70;;;3.40;;
8663;SDS011;4369;47.842;13.096;2023-06-24T07:52:25;5.23;;;3.57;;
8663;SDS011;4369;47.842;13.096;2023-06-24T07:54:52;4.10;;;3.63;;
8663;SDS011;4369;47.842;13.096;2023-06-24T07:57:19;4.73;;;3.47;;
8663;SDS011;4369;47.842;13.096;2023-06-24T07:59:48;4.80;;;3.70;;
8663;SDS011;4369;47.842;13.096;2023-06-24T08:02:14;3.93;;;3.53;;
8663;SDS011;4369;47.842;13.096;2023-06-24T08:04:41;4.07;;;3.70;;
8663;SDS011;4369;47.842;13.096;2023-06-24T08:07:08;3.93;;;3.53;;
8663;SDS011;4369;47.842;13.096;2023-06-24T08:09:35;7.63;;;5.73;;
8663;SDS011;4369;47.842;13.096;2023-06-24T08:12:02;5.43;;;4.13;;
8663;SDS011;4369;47.842;13.096;2023-06-24T08:14:29;4.73;;;4.03;;
8663;SDS011;4369;47.842;13.096;2023-06-24T08:16:58;4.30;;;3.90;;
8663;SDS011;4369;47.842;13.096;2023-06-24T08:19:24;5.73;;;3.77;;
8663;SDS011;4369;47.842;13.096;2023-06-24T08:21:51;5.13;;;4.17;;
8663;SDS011;4369;47.842;13.096;2023-06-24T08:24:18;5.90;;;4.10;;
8663;SDS011;4369;47.842;13.096;2023-06-24T08:26:45;4.63;;;4.13;;
8663;SDS011;4369;47.842;13.096;2023-06-24T08:29:12;5.07;;;4.30;;
8663;SDS011;4369;47.842;13.096;2023-06-24T08:31:39;6.13;;;4.33;;
8663;SDS011;4369;47.842;13.096;2023-06-24T08:34:07;3.80;;;3.50;;
8663;SDS011;4369;47.842;13.096;2023-06-24T08:36:34;3.43;;;3.17;;
8663;SDS011;4369;47.842;13.096;2023-06-24T08:39:01;3.80;;;3.50;;
8663;SDS011;4369;47.842;13.096;2023-06-24T08:41:28;3.83;;;3.20;;
8663;SDS011;4369;47.842;13.096;2023-06-24T08:43:55;3.50;;;3.20;;
8663;SDS011;4369;47.842;13.096;2023-06-24T08:46:22;4.67;;;3.03;;
8663;SDS011;4369;47.842;13.096;2023-06-24T08:48:51;3.00;;;2.80;;
8663;SDS011;4369;47.842;13.096;2023-06-24T08:51:27;3.17;;;2.97;;
8663;SDS011;4369;47.842;13.096;2023-06-24T08:53:57;3.10;;;2.90;;
8663;SDS011;4369;47.842;13.096;2023-06-24T08:56:25;4.33;;;2.87;;
8663;SDS011;4369;47.842;13.096;2023-06-24T08:58:52;3.43;;;2.97;;
8663;SDS011;4369;47.842;13.096;2023-06-24T09:01:20;4.00;;;3.30;;
8663;SDS011;4369;47.842;13.096;2023-06-24T09:03:47;3.37;;;2.97;;
8663;SDS011;4369;47.842;13.096;2023-06-24T09:06:14;4.30;;;3.00;;
8663;SDS011;4369;47.842;13.096;2023-06-24T09:08:42;3.10;;;2.80;;
8663;SDS011;4369;47.842;13.096;2023-06-24T09:11:21;4.17;;;2.97;;
8663;SDS011;4369;47.842;13.096;2023-06-24T09:13:51;3.30;;;3.00;;
8663;SDS011;4369;47.842;13.096;2023-06-24T09:16:21;3.40;;;3.10;;
8663;SDS011;4369;47.842;13.096;2023-06-24T09:18:48;3.30;;;3.00;;
8663;SDS011;4369;47.842;13.096;2023-06-24T09:21:21;3.63;;;3.03;;
8663;SDS011;4369;47.842;13.096;2023-06-24T09:23:52;3.30;;;3.00;;
8663;SDS011;4369;47.842;13.096;2023-06-24T09:26:20;4.53;;;3.20;;
8663;SDS011;4369;47.842;13.096;2023-06-24T09:28:49;3.80;;;3.03;;
8663;SDS011;4369;47.842;13.096;2023-06-24T09:31:16;3.20;;;3.00;;
8663;SDS011;4369;47.842;13.096;2023-06-24T09:33:44;4.33;;;3.40;;
8663;SDS011;4369;47.842;13.096;2023-06-24T09:36:12;5.90;;;3.40;;
8663;SDS011;4369;47.842;13.096;2023-06-24T09:38:40;2.60;;;2.40;;
8663;SDS011;4369;47.842;13.096;2023-06-24T09:41:10;4.10;;;2.90;;
8663;SDS011;4369;47.842;13.096;2023-06-24T09:43:37;3.23;;;2.93;;
8663;SDS011;4369;47.842;13.096;2023-06-24T09:46:06;3.57;;;2.87;;
8663;SDS011;4369;47.842;13.096;2023-06-24T09:48:33;2.80;;;2.60;;
8663;SDS011;4369;47.842;13.096;2023-06-24T09:51:00;2.80;;;2.60;;
8663;SDS011;4369;47.842;13.096;2023-06-24T09:53:32;3.67;;;3.30;;
8663;SDS011;4369;47.842;13.096;2023-06-24T09:55:59;3.70;;;3.00;;
8663;SDS011;4369;47.842;13.096;2023-06-24T09:58:31;3.60;;;3.30;;
8663;SDS011;4369;47.842;13.096;2023-06-24T10:01:02;3.00;;;2.77;;
8663;SDS011;4369;47.842;13.096;2023-06-24T10:03:30;3.33;;;3.03;;
8663;SDS011;4369;47.842;13.096;2023-06-24T10:06:01;3.00;;;2.80;;
8663;SDS011;4369;47.842;13.096;2023-06-24T10:08:29;3.63;;;3.33;;
8663;SDS011;4369;47.842;13.096;2023-06-24T10:10:57;4.40;;;2.97;;
8663;SDS011;4369;47.842;13.096;2023-06-24T10:13:25;4.37;;;2.80;;
8663;SDS011;4369;47.842;13.096;2023-06-24T10:15:54;3.90;;;2.90;;
8663;SDS011;4369;47.842;13.096;2023-06-24T10:18:35;3.17;;;2.87;;
8663;SDS011;4369;47.842;13.096;2023-06-24T10:21:02;2.80;;;2.60;;
8663;SDS011;4369;47.842;13.096;2023-06-24T10:23:30;3.00;;;2.80;;
8663;SDS011;4369;47.842;13.096;2023-06-24T10:26:07;2.97;;;2.77;;
8663;SDS011;4369;47.842;13.096;2023-06-24T10:31:52;2.63;;;2.43;;
8663;SDS011;4369;47.842;13.096;2023-06-24T10:34:22;3.07;;;2.80;;
8663;SDS011;4369;47.842;13.096;2023-06-24T10:37:00;3.37;;;2.90;;
8663;SDS011;4369;47.842;13.096;2023-06-24T10:39:38;3.07;;;2.83;;
8663;SDS011;4369;47.842;13.096;2023-06-24T10:44:52;3.90;;;2.97;;
8663;SDS011;4369;47.842;13.096;2023-06-24T10:47:21;3.10;;;2.80;;
8663;SDS011;4369;47.842;13.096;2023-06-24T10:49:49;3.20;;;2.90;;
8663;SDS011;4369;47.842;13.096;2023-06-24T10:52:18;3.20;;;2.90;;
8663;SDS011;4369;47.842;13.096;2023-06-24T10:54:46;2.90;;;2.70;;
8663;SDS011;4369;47.842;13.096;2023-06-24T10:57:13;3.87;;;3.40;;
8663;SDS011;4369;47.842;13.096;2023-06-24T10:59:40;3.10;;;2.90;;
8663;SDS011;4369;47.842;13.096;2023-06-24T11:02:07;3.37;;;2.90;;
8663;SDS011;4369;47.842;13.096;2023-06-24T11:04:43;4.40;;;3.93;;
8663;SDS011;4369;47.842;13.096;2023-06-24T11:07:10;3.70;;;3.37;;
8663;SDS011;4369;47.842;13.096;2023-06-24T11:09:37;3.53;;;3.23;;
8663;SDS011;4369;47.842;13.096;2023-06-24T11:12:05;3.37;;;3.07;;
8663;SDS011;4369;47.842;13.096;2023-06-24T11:14:35;3.40;;;3.10;;
8663;SDS011;4369;47.842;13.096;2023-06-24T11:17:03;3.10;;;2.80;;
8663;SDS011;4369;47.842;13.096;2023-06-24T11:19:30;5.27;;;3.37;;
8663;SDS011;4369;47.842;13.096;2023-06-24T11:22:00;4.20;;;3.07;;
8663;SDS011;4369;47.842;13.096;2023-06-24T11:24:27;3.10;;;2.77;;
8663;SDS011;4369;47.842;13.096;2023-06-24T11:26:54;3.10;;;2.80;;
8663;SDS011;4369;47.842;13.096;2023-06-24T11:29:21;3.07;;;2.83;;
8663;SDS011;4369;47.842;13.096;2023-06-24T11:31:48;3.17;;;2.87;;
8663;SDS011;4369;47.842;13.096;2023-06-24T11:34:15;3.00;;;2.70;;
8663;SDS011;4369;47.842;13.096;2023-06-24T11:36:42;3.07;;;2.77;;
8663;SDS011;4369;47.842;13.096;2023-06-24T11:39:21;3.87;;;2.80;;
8663;SDS011;4369;47.842;13.096;2023-06-24T11:41:48;2.83;;;2.63;;
8663;SDS011;4369;47.842;13.096;2023-06-24T11:44:16;2.90;;;2.70;;
8663;SDS011;4369;47.842;13.096;2023-06-24T11:46:44;2.90;;;2.70;;
8663;SDS011;4369;47.842;13.096;2023-06-24T11:49:11;3.83;;;3.10;;
8663;SDS011;4369;47.842;13.096;2023-06-24T11:51:45;2.67;;;2.47;;
8663;SDS011;4369;47.842;13.096;2023-06-24T11:54:14;3.00;;;2.70;;
8663;SDS011;4369;47.842;13.096;2023-06-24T11:56:44;2.90;;;2.70;;
8663;SDS011;4369;47.842;13.096;2023-06-24T11:59:15;3.70;;;2.73;;
8663;SDS011;4369;47.842;13.096;2023-06-24T12:01:44;3.67;;;2.97;;
8663;SDS011;4369;47.842;13.096;2023-06-24T12:04:11;3.57;;;3.27;;
8663;SDS011;4369;47.842;13.096;2023-06-24T12:06:39;3.20;;;2.90;;
8663;SDS011;4369;47.842;13.096;2023-06-24T12:09:06;3.40;;;3.10;;
8663;SDS011;4369;47.842;13.096;2023-06-24T12:11:34;3.27;;;2.97;;
8663;SDS011;4369;47.842;13.096;2023-06-24T12:14:02;3.10;;;2.90;;
8663;SDS011;4369;47.842;13.096;2023-06-24T12:16:29;3.20;;;2.90;;
8663;SDS011;4369;47.842;13.096;2023-06-24T12:18:56;2.53;;;2.33;;
8663;SDS011;4369;47.842;13.096;2023-06-24T12:21:23;2.60;;;2.40;;
8663;SDS011;4369;47.842;13.096;2023-06-24T12:23:50;4.20;;;3.13;;
8663;SDS011;4369;47.842;13.096;2023-06-24T12:26:18;3.50;;;3.20;;
8663;SDS011;4369;47.842;13.096;2023-06-24T12:28:45;3.57;;;3.10;;
8663;SDS011;4369;47.842;13.096;2023-06-24T12:31:13;3.13;;;2.70;;
8663;SDS011;4369;47.842;13.096;2023-06-24T12:33:40;3.47;;;3.27;;
8663;SDS011;4369;47.842;13.096;2023-06-24T12:36:07;3.10;;;2.80;;
8663;SDS011;4369;47.842;13.096;2023-06-24T12:38:34;3.10;;;2.80;;
8663;SDS011;4369;47.842;13.096;2023-06-24T12:41:01;3.33;;;2.67;;
8663;SDS011;4369;47.842;13.096;2023-06-24T12:43:28;3.20;;;2.90;;
8663;SDS011;4369;47.842;13.096;2023-06-24T12:45:55;3.30;;;3.00;;
8663;SDS011;4369;47.842;13.096;2023-06-24T12:48:23;3.20;;;3.00;;
8663;SDS011;4369;47.842;13.096;2023-06-24T12:50:50;3.37;;;2.87;;
8663;SDS011;4369;47.842;13.096;2023-06-24T12:53:18;3.30;;;3.10;;
8663;SDS011;4369;47.842;13.096;2023-06-24T12:55:45;3.60;;;3.10;;
8663;SDS011;4369;47.842;13.096;2023-06-24T12:58:12;3.80;;;3.50;;
8663;SDS011;4369;47.842;13.096;2023-06-24T13:00:39;3.37;;;3.07;;
8663;SDS011;4369;47.842;13.096;2023-06-24T13:03:06;3.90;;;3.10;;
8663;SDS011;4369;47.842;13.096;2023-06-24T13:05:35;3.50;;;3.20;;
8663;SDS011;4369;47.842;13.096;2023-06-24T13:08:02;3.00;;;2.80;;
8663;SDS011;4369;47.842;13.096;2023-06-24T13:10:29;3.90;;;3.50;;
8663;SDS011;4369;47.842;13.096;2023-06-24T13:12:55;3.03;;;2.83;;
8663;SDS011;4369;47.842;13.096;2023-06-24T13:15:22;3.40;;;3.10;;
8663;SDS011;4369;47.842;13.096;2023-06-24T13:17:49;3.73;;;3.43;;
8663;SDS011;4369;47.842;13.096;2023-06-24T13:20:16;3.80;;;3.50;;
8663;SDS011;4369;47.842;13.096;2023-06-24T13:22:44;3.37;;;3.10;;
8663;SDS011;4369;47.842;13.096;2023-06-24T13:25:11;4.40;;;4.00;;
8663;SDS011;4369;47.842;13.096;2023-06-24T13:27:38;4.60;;;3.67;;
8663;SDS011;4369;47.842;13.096;2023-06-24T13:30:05;4.37;;;3.97;;
8663;SDS011;4369;47.842;13.096;2023-06-24T13:32:33;3.90;;;3.60;;
8663;SDS011;4369;47.842;13.096;2023-06-24T13:35:00;3.73;;;3.43;;
8663;SDS011;4369;47.842;13.096;2023-06-24T13:37:27;5.63;;;4.50;;
8663;SDS011;4369;47.842;13.096;2023-06-24T13:39:56;3.90;;;3.60;;
8663;SDS011;4369;47.842;13.096;2023-06-24T13:42:23;4.22;;;3.90;;
8663;SDS011;4369;47.842;13.096;2023-06-24T13:44:51;4.50;;;4.10;;
8663;SDS011;4369;47.842;13.096;2023-06-24T13:47:17;3.87;;;3.57;;
8663;SDS011;4369;47.842;13.096;2023-06-24T13:49:44;3.40;;;3.20;;
8663;SDS011;4369;47.842;13.096;2023-06-24T13:52:11;3.70;;;3.40;;
8663;SDS011;4369;47.842;13.096;2023-06-24T13:54:38;3.90;;;3.60;;
8663;SDS011;4369;47.842;13.096;2023-06-24T13:57:06;4.53;;;4.13;;
8663;SDS011;4369;47.842;13.096;2023-06-24T13:59:33;4.07;;;3.67;;
8663;SDS011;4369;47.842;13.096;2023-06-24T14:02:00;4.00;;;3.65;;
8663;SDS011;4369;47.842;13.096;2023-06-24T14:04:27;3.65;;;3.35;;
8663;SDS011;4369;47.842;13.096;2023-06-24T14:06:54;3.35;;;3.05;;
8663;SDS011;4369;47.842;13.096;2023-06-24T14:09:21;4.55;;;3.67;;
8663;SDS011;4369;47.842;13.096;2023-06-24T14:11:48;4.35;;;3.95;;
8663;SDS011;4369;47.842;13.096;2023-06-24T14:14:17;4.38;;;3.30;;
8663;SDS011;4369;47.842;13.096;2023-06-24T14:16:45;3.60;;;3.30;;
8663;SDS011;4369;47.842;13.096;2023-06-24T14:19:12;3.60;;;3.33;;
8663;SDS011;4369;47.842;13.096;2023-06-24T14:21:39;3.65;;;3.35;;
8663;SDS011;4369;47.842;13.096;2023-06-24T14:24:06;3.85;;;3.55;;
8663;SDS011;4369;47.842;13.096;2023-06-24T14:26:35;4.28;;;3.40;;
8663;SDS011;4369;47.842;13.096;2023-06-24T14:29:03;5.45;;;4.93;;
8663;SDS011;4369;47.842;13.096;2023-06-24T14:31:31;3.75;;;3.50;;
8663;SDS011;4369;47.842;13.096;2023-06-24T14:33:58;3.55;;;3.35;;
8663;SDS011;4369;47.842;13.096;2023-06-24T14:36:25;3.45;;;3.25;;
8663;SDS011;4369;47.842;13.096;2023-06-24T14:38:51;3.53;;;3.25;;
8663;SDS011;4369;47.842;13.096;2023-06-24T14:41:18;3.88;;;3.58;;
8663;SDS011;4369;47.842;13.096;2023-06-24T14:43:45;4.05;;;3.72;;
8663;SDS011;4369;47.842;13.096;2023-06-24T14:46:12;3.50;;;3.30;;
8663;SDS011;4369;47.842;13.096;2023-06-24T14:48:40;3.85;;;3.55;;
8663;SDS011;4369;47.842;13.096;2023-06-24T14:51:07;3.55;;;3.28;;
8663;SDS011;4369;47.842;13.096;2023-06-24T14:53:34;3.60;;;3.33;;
8663;SDS011;4369;47.842;13.096;2023-06-24T14:56:01;3.45;;;3.25;;
8663;SDS011;4369;47.842;13.096;2023-06-24T14:58:28;3.88;;;3.45;;
8663;SDS011;4369;47.842;13.096;2023-06-24T15:00:55;4.70;;;3.75;;
8663;SDS011;4369;47.842;13.096;2023-06-24T15:03:22;4.10;;;3.80;;
8663;SDS011;4369;47.842;13.096;2023-06-24T15:05:50;4.15;;;3.78;;
8663;SDS011;4369;47.842;13.096;2023-06-24T15:08:17;4.18;;;3.67;;
8663;SDS011;4369;47.842;13.096;2023-06-24T15:10:44;4.57;;;4.18;;
8663;SDS011;4369;47.842;13.096;2023-06-24T15:13:11;4.35;;;3.95;;
8663;SDS011;4369;47.842;13.096;2023-06-24T15:15:37;3.78;;;3.47;;
8663;SDS011;4369;47.842;13.096;2023-06-24T15:18:04;4.07;;;3.78;;
8663;SDS011;4369;47.842;13.096;2023-06-24T15:20:31;4.13;;;3.72;;
8663;SDS011;4369;47.842;13.096;2023-06-24T15:22:59;4.03;;;3.72;;
8663;SDS011;4369;47.842;13.096;2023-06-24T15:25:26;4.18;;;3.80;;